sensor_id;sensor_type;location;lat;lon;timestamp;pressure;altitude;pressure_sealevel;temperature;humidity
21359;BME280;13506;50.852;20.632;2023-04-06T00:01:49;98641.66;;;-0.48;55.71
21359;BME280;13506;50.852;20.632;2023-04-06T00:04:17;98644.34;;;-0.54;55.19
21359;BME280;13506;50.852;20.632;2023-04-06T00:06:45;98647.72;;;-0.51;55.76
21359;BME280;13506;50.852;20.632;2023-04-06T00:09:13;98640.88;;;-0.52;55.11
21359;BME280;13506;50.852;20.632;2023-04-06T00:11:43;98641.72;;;-0.51;55.05
21359;BME280;13506;50.852;20.632;2023-04-06T00:14:11;98632.28;;;-0.51;55.21
21359;BME280;13506;50.852;20.632;2023-04-06T00:16:39;98640.03;;;-0.52;56.07
21359;BME280;13506;50.852;20.632;2023-04-06T00:19:06;98638.34;;;-0.53;55.88
21359;BME280;13506;50.852;20.632;2023-04-06T00:21:35;98640.97;;;-0.56;55.74
21359;BME280;13506;50.852;20.632;2023-04-06T00:24:02;98632.44;;;-0.57;56.05
21359;BME280;13506;50.852;20.632;2023-04-06T00:26:31;98636.88;;;-0.63;56.50
21359;BME280;13506;50.852;20.632;2023-04-06T00:29:01;98626.59;;;-0.63;56.98
21359;BME280;13506;50.852;20.632;2023-04-06T00:31:29;98630.03;;;-0.65;57.76
21359;BME280;13506;50.852;20.632;2023-04-06T00:33:58;98637.78;;;-0.66;57.29
21359;BME280;13506;50.852;20.632;2023-04-06T00:36:26;98637.84;;;-0.69;57.52
21359;BME280;13506;50.852;20.632;2023-04-06T00:38:54;98628.41;;;-0.69;58.02
21359;BME280;13506;50.852;20.632;2023-04-06T00:41:22;98631.84;;;-0.70;58.24
21359;BME280;13506;50.852;20.632;2023-04-06T00:43:51;98636.16;;;-0.70;58.40
21359;BME280;13506;50.852;20.632;2023-04-06T00:46:23;98627.59;;;-0.71;59.60
21359;BME280;13506;50.852;20.632;2023-04-06T00:48:51;98620.69;;;-0.69;58.89
21359;BME280;13506;50.852;20.632;2023-04-06T00:51:19;98609.53;;;-0.66;59.43
21359;BME280;13506;50.852;20.632;2023-04-06T00:53:46;98616.44;;;-0.70;58.83
21359;BME280;13506;50.852;20.632;2023-04-06T00:56:15;98617.28;;;-0.69;58.65
21359;BME280;13506;50.852;20.632;2023-04-06T00:58:50;98615.53;;;-0.69;59.44
21359;BME280;13506;50.852;20.632;2023-04-06T01:01:19;98620.69;;;-0.69;58.60
21359;BME280;13506;50.852;20.632;2023-04-06T01:03:49;98611.31;;;-0.70;58.43
21359;BME280;13506;50.852;20.632;2023-04-06T01:06:18;98611.34;;;-0.71;58.76
21359;BME280;13506;50.852;20.632;2023-04-06T01:08:55;98605.38;;;-0.73;58.66
21359;BME280;13506;50.852;20.632;2023-04-06T01:11:25;98613.97;;;-0.74;58.34
21359;BME280;13506;50.852;20.632;2023-04-06T01:13:53;98607.19;;;-0.77;58.94
21359;BME280;13506;50.852;20.632;2023-04-06T01:16:52;98591.84;;;-0.80;58.74
21359;BME280;13506;50.852;20.632;2023-04-06T01:19:25;98606.47;;;-0.83;58.85
21359;BME280;13506;50.852;20.632;2023-04-06T01:21:55;98604.88;;;-0.88;58.47
21359;BME280;13506;50.852;20.632;2023-04-06T01:24:27;98592.06;;;-0.91;58.47
21359;BME280;13506;50.852;20.632;2023-04-06T01:27:12;98593.84;;;-0.93;59.20
21359;BME280;13506;50.852;20.632;2023-04-06T01:30:12;98592.19;;;-0.95;59.43
21359;BME280;13506;50.852;20.632;2023-04-06T01:32:48;98597.34;;;-0.97;59.04
21359;BME280;13506;50.852;20.632;2023-04-06T01:35:22;98597.44;;;-1.00;58.79
21359;BME280;13506;50.852;20.632;2023-04-06T01:38:00;98601.78;;;-1.03;59.40
21359;BME280;13506;50.852;20.632;2023-04-06T01:40:35;98591.53;;;-1.05;59.40
21359;BME280;13506;50.852;20.632;2023-04-06T01:43:03;98587.28;;;-1.06;59.31
21359;BME280;13506;50.852;20.632;2023-04-06T01:45:44;98592.47;;;-1.09;58.82
21359;BME280;13506;50.852;20.632;2023-04-06T01:48:17;98578.88;;;-1.13;59.54
21359;BME280;13506;50.852;20.632;2023-04-06T01:50:44;98581.47;;;-1.16;59.40
21359;BME280;13506;50.852;20.632;2023-04-06T01:53:17;98588.38;;;-1.18;59.93
21359;BME280;13506;50.852;20.632;2023-04-06T01:55:47;98581.59;;;-1.22;59.98
21359;BME280;13506;50.852;20.632;2023-04-06T01:58:28;98584.28;;;-1.27;59.65
21359;BME280;13506;50.852;20.632;2023-04-06T02:00:56;98587.75;;;-1.29;60.11
21359;BME280;13506;50.852;20.632;2023-04-06T02:03:27;98570.72;;;-1.32;59.74
21359;BME280;13506;50.852;20.632;2023-04-06T02:06:04;98578.44;;;-1.33;60.63
21359;BME280;13506;50.852;20.632;2023-04-06T02:08:37;98569.91;;;-1.35;59.90
21359;BME280;13506;50.852;20.632;2023-04-06T02:11:06;98578.47;;;-1.36;60.65
21359;BME280;13506;50.852;20.632;2023-04-06T02:13:41;98568.28;;;-1.39;60.37
21359;BME280;13506;50.852;20.632;2023-04-06T02:16:10;98574.25;;;-1.39;60.41
21359;BME280;13506;50.852;20.632;2023-04-06T02:18:38;98572.56;;;-1.38;60.20
21359;BME280;13506;50.852;20.632;2023-04-06T02:21:06;98576.00;;;-1.41;61.00
21359;BME280;13506;50.852;20.632;2023-04-06T02:23:34;98569.22;;;-1.42;60.56
21359;BME280;13506;50.852;20.632;2023-04-06T02:26:02;98563.22;;;-1.42;61.30
21359;BME280;13506;50.852;20.632;2023-04-06T02:28:31;98565.00;;;-1.44;61.06
21359;BME280;13506;50.852;20.632;2023-04-06T02:31:01;98565.81;;;-1.44;61.61
21359;BME280;13506;50.852;20.632;2023-04-06T02:33:30;98569.31;;;-1.48;61.19
21359;BME280;13506;50.852;20.632;2023-04-06T02:35:58;98557.34;;;-1.49;60.93
21359;BME280;13506;50.852;20.632;2023-04-06T02:38:26;98567.59;;;-1.48;61.73
21359;BME280;13506;50.852;20.632;2023-04-06T02:40:54;98569.31;;;-1.47;61.60
21359;BME280;13506;50.852;20.632;2023-04-06T02:43:25;98561.59;;;-1.47;61.75
21359;BME280;13506;50.852;20.632;2023-04-06T02:46:06;98563.31;;;-1.47;61.35
21359;BME280;13506;50.852;20.632;2023-04-06T02:48:39;98567.63;;;-1.49;61.39
21359;BME280;13506;50.852;20.632;2023-04-06T02:51:07;98554.78;;;-1.49;61.44
21359;BME280;13506;50.852;20.632;2023-04-06T02:53:36;98560.72;;;-1.47;61.45
21359;BME280;13506;50.852;20.632;2023-04-06T02:56:04;98559.91;;;-1.48;61.22
21359;BME280;13506;50.852;20.632;2023-04-06T02:58:43;98561.66;;;-1.50;61.35
21359;BME280;13506;50.852;20.632;2023-04-06T03:01:13;98560.78;;;-1.49;61.41
21359;BME280;13506;50.852;20.632;2023-04-06T03:03:42;98559.09;;;-1.50;61.79
21359;BME280;13506;50.852;20.632;2023-04-06T03:06:17;98561.72;;;-1.53;61.71
21359;BME280;13506;50.852;20.632;2023-04-06T03:08:45;98554.88;;;-1.54;61.82
21359;BME280;13506;50.852;20.632;2023-04-06T03:11:13;98560.09;;;-1.57;61.86
21359;BME280;13506;50.852;20.632;2023-04-06T03:13:44;98559.19;;;-1.56;61.36
21359;BME280;13506;50.852;20.632;2023-04-06T03:16:13;98562.69;;;-1.60;61.48
21359;BME280;13506;50.852;20.632;2023-04-06T03:18:42;98554.16;;;-1.60;61.60
21359;BME280;13506;50.852;20.632;2023-04-06T03:21:13;98560.19;;;-1.61;61.99
21359;BME280;13506;50.852;20.632;2023-04-06T03:23:47;98556.75;;;-1.62;62.02
21359;BME280;13506;50.852;20.632;2023-04-06T03:26:17;98558.50;;;-1.64;62.22
21359;BME280;13506;50.852;20.632;2023-04-06T03:28:45;98552.63;;;-1.68;61.72
21359;BME280;13506;50.852;20.632;2023-04-06T03:31:15;98556.94;;;-1.70;61.93
21359;BME280;13506;50.852;20.632;2023-04-06T03:33:49;98562.09;;;-1.73;62.43
21359;BME280;13506;50.852;20.632;2023-04-06T03:36:23;98562.06;;;-1.71;62.63
21359;BME280;13506;50.852;20.632;2023-04-06T03:38:54;98555.31;;;-1.75;62.60
21359;BME280;13506;50.852;20.632;2023-04-06T03:41:22;98557.84;;;-1.74;62.57
21359;BME280;13506;50.852;20.632;2023-04-06T03:43:58;98561.25;;;-1.73;62.79
21359;BME280;13506;50.852;20.632;2023-04-06T03:46:27;98544.19;;;-1.74;62.17
21359;BME280;13506;50.852;20.632;2023-04-06T03:48:57;98553.63;;;-1.76;62.25
21359;BME280;13506;50.852;20.632;2023-04-06T03:51:26;98555.44;;;-1.81;63.03
21359;BME280;13506;50.852;20.632;2023-04-06T03:53:54;98552.84;;;-1.80;62.70
21359;BME280;13506;50.852;20.632;2023-04-06T03:56:22;98552.78;;;-1.77;62.54
21359;BME280;13506;50.852;20.632;2023-04-06T03:58:50;98558.75;;;-1.76;63.14
21359;BME280;13506;50.852;20.632;2023-04-06T04:01:20;98540.75;;;-1.75;62.95
21359;BME280;13506;50.852;20.632;2023-04-06T04:03:50;98538.19;;;-1.73;62.53
21359;BME280;13506;50.852;20.632;2023-04-06T04:06:18;98542.41;;;-1.71;62.91
21359;BME280;13506;50.852;20.632;2023-04-06T04:08:46;98553.53;;;-1.70;62.71
21359;BME280;13506;50.852;20.632;2023-04-06T04:11:14;98549.25;;;-1.71;62.77
21359;BME280;13506;50.852;20.632;2023-04-06T04:13:43;98555.19;;;-1.69;62.93
21359;BME280;13506;50.852;20.632;2023-04-06T04:16:11;98554.28;;;-1.67;62.39
21359;BME280;13506;50.852;20.632;2023-04-06T04:18:39;98554.31;;;-1.68;62.88
21359;BME280;13506;50.852;20.632;2023-04-06T04:21:11;98553.38;;;-1.64;62.21
21359;BME280;13506;50.852;20.632;2023-04-06T04:23:39;98545.69;;;-1.64;62.80
21359;BME280;13506;50.852;20.632;2023-04-06T04:26:07;98546.50;;;-1.62;62.65
21359;BME280;13506;50.852;20.632;2023-04-06T04:28:36;98543.88;;;-1.59;62.45
21359;BME280;13506;50.852;20.632;2023-04-06T04:31:04;98544.72;;;-1.58;62.56
21359;BME280;13506;50.852;20.632;2023-04-06T04:33:35;98537.00;;;-1.57;62.59
21359;BME280;13506;50.852;20.632;2023-04-06T04:36:09;98537.81;;;-1.55;62.14
21359;BME280;13506;50.852;20.632;2023-04-06T04:38:41;98533.50;;;-1.53;62.19
21359;BME280;13506;50.852;20.632;2023-04-06T04:41:10;98536.00;;;-1.50;62.62
21359;BME280;13506;50.852;20.632;2023-04-06T04:43:41;98535.09;;;-1.47;61.85
21359;BME280;13506;50.852;20.632;2023-04-06T04:46:11;98530.81;;;-1.47;62.11
21359;BME280;13506;50.852;20.632;2023-04-06T04:48:42;98539.34;;;-1.44;61.97
21359;BME280;13506;50.852;20.632;2023-04-06T04:51:12;98521.28;;;-1.41;62.60
21359;BME280;13506;50.852;20.632;2023-04-06T04:54:03;98530.69;;;-1.40;62.00
21359;BME280;13506;50.852;20.632;2023-04-06T04:56:32;98528.94;;;-1.38;62.12
21359;BME280;13506;50.852;20.632;2023-04-06T04:59:17;98531.44;;;-1.37;62.14
21359;BME280;13506;50.852;20.632;2023-04-06T05:01:52;98527.94;;;-1.31;62.10
21359;BME280;13506;50.852;20.632;2023-04-06T05:04:20;98522.69;;;-1.27;62.56
21359;BME280;13506;50.852;20.632;2023-04-06T05:06:49;98528.53;;;-1.20;61.84
21359;BME280;13506;50.852;20.632;2023-04-06T05:09:20;98514.75;;;-1.16;61.97
21359;BME280;13506;50.852;20.632;2023-04-06T05:11:48;98514.63;;;-1.10;61.94
21359;BME280;13506;50.852;20.632;2023-04-06T05:14:16;98512.81;;;-1.04;62.00
21359;BME280;13506;50.852;20.632;2023-04-06T05:16:44;98519.47;;;-0.97;62.10
21359;BME280;13506;50.852;20.632;2023-04-06T05:19:13;98520.28;;;-0.95;61.88
21359;BME280;13506;50.852;20.632;2023-04-06T05:21:44;98518.56;;;-0.95;61.85
21359;BME280;13506;50.852;20.632;2023-04-06T05:24:14;98520.25;;;-0.94;61.30
21359;BME280;13506;50.852;20.632;2023-04-06T05:26:45;98513.41;;;-0.93;61.75
21359;BME280;13506;50.852;20.632;2023-04-06T05:29:20;98515.75;;;-0.84;61.09
21359;BME280;13506;50.852;20.632;2023-04-06T05:31:49;98518.31;;;-0.84;61.46
21359;BME280;13506;50.852;20.632;2023-04-06T05:34:18;98518.97;;;-0.76;61.32
21359;BME280;13506;50.852;20.632;2023-04-06T05:36:47;98518.00;;;-0.70;61.05
21359;BME280;13506;50.852;20.632;2023-04-06T05:39:20;98515.47;;;-0.72;61.09
21359;BME280;13506;50.852;20.632;2023-04-06T05:41:51;98510.94;;;-0.62;61.31
21359;BME280;13506;50.852;20.632;2023-04-06T05:44:30;98500.69;;;-0.62;61.09
21359;BME280;13506;50.852;20.632;2023-04-06T05:47:11;98516.78;;;-0.55;60.51
21359;BME280;13506;50.852;20.632;2023-04-06T05:49:42;98516.78;;;-0.55;60.29
21359;BME280;13506;50.852;20.632;2023-04-06T05:52:16;98526.41;;;-0.63;60.95
21359;BME280;13506;50.852;20.632;2023-04-06T05:54:48;98513.16;;;-0.48;60.95
21359;BME280;13506;50.852;20.632;2023-04-06T05:57:16;98508.03;;;-0.48;61.08
21359;BME280;13506;50.852;20.632;2023-04-06T05:59:45;98498.56;;;-0.46;60.61
21359;BME280;13506;50.852;20.632;2023-04-06T06:02:15;98505.16;;;-0.70;60.36
21359;BME280;13506;50.852;20.632;2023-04-06T06:04:47;98505.53;;;-0.51;60.41
21359;BME280;13506;50.852;20.632;2023-04-06T06:07:16;98500.41;;;-0.51;60.31
21359;BME280;13506;50.852;20.632;2023-04-06T06:09:51;98501.22;;;-0.49;60.75
21359;BME280;13506;50.852;20.632;2023-04-06T06:12:27;98495.22;;;-0.50;60.61
21359;BME280;13506;50.852;20.632;2023-04-06T06:14:56;98490.78;;;-0.43;60.59
21359;BME280;13506;50.852;20.632;2023-04-06T06:17:25;98494.22;;;-0.44;60.62
21359;BME280;13506;50.852;20.632;2023-04-06T06:19:54;98485.56;;;-0.40;60.38
21359;BME280;13506;50.852;20.632;2023-04-06T06:22:21;98492.03;;;-0.25;60.98
21359;BME280;13506;50.852;20.632;2023-04-06T06:24:52;98478.97;;;-0.17;59.92
21359;BME280;13506;50.852;20.632;2023-04-06T06:27:21;98483.03;;;-0.09;60.40
21359;BME280;13506;50.852;20.632;2023-04-06T06:29:49;98483.59;;;0.01;59.68
21359;BME280;13506;50.852;20.632;2023-04-06T06:32:17;98486.00;;;0.07;59.45
21359;BME280;13506;50.852;20.632;2023-04-06T06:34:49;98485.16;;;0.07;59.53
21359;BME280;13506;50.852;20.632;2023-04-06T06:37:17;98490.81;;;0.20;60.29
21359;BME280;13506;50.852;20.632;2023-04-06T06:39:46;98485.53;;;0.24;59.33
21359;BME280;13506;50.852;20.632;2023-04-06T06:42:15;98482.13;;;0.24;58.90
21359;BME280;13506;50.852;20.632;2023-04-06T06:44:54;98475.72;;;0.07;59.00
21359;BME280;13506;50.852;20.632;2023-04-06T06:47:24;98480.88;;;0.07;59.36
21359;BME280;13506;50.852;20.632;2023-04-06T06:49:53;98474.09;;;0.05;58.87
21359;BME280;13506;50.852;20.632;2023-04-06T06:52:20;98483.09;;;0.20;58.62
21359;BME280;13506;50.852;20.632;2023-04-06T06:54:49;98476.00;;;0.28;58.17
21359;BME280;13506;50.852;20.632;2023-04-06T06:57:21;98476.63;;;0.36;58.85
21359;BME280;13506;50.852;20.632;2023-04-06T06:59:50;98478.25;;;0.40;57.45
21359;BME280;13506;50.852;20.632;2023-04-06T07:02:20;98466.53;;;0.30;58.45
21359;BME280;13506;50.852;20.632;2023-04-06T07:04:48;98471.38;;;0.39;57.76
21359;BME280;13506;50.852;20.632;2023-04-06T07:07:17;98462.44;;;0.23;59.30
21359;BME280;13506;50.852;20.632;2023-04-06T07:09:45;98475.03;;;0.32;59.01
21359;BME280;13506;50.852;20.632;2023-04-06T07:12:12;98456.81;;;0.40;58.95
21359;BME280;13506;50.852;20.632;2023-04-06T07:14:42;98465.09;;;0.49;58.70
21359;BME280;13506;50.852;20.632;2023-04-06T07:17:10;98471.03;;;0.51;58.74
21359;BME280;13506;50.852;20.632;2023-04-06T07:19:38;98467.97;;;0.38;59.57
21359;BME280;13506;50.852;20.632;2023-04-06T07:22:07;98471.66;;;0.60;59.70
21359;BME280;13506;50.852;20.632;2023-04-06T07:24:35;98458.78;;;0.60;59.94
21359;BME280;13506;50.852;20.632;2023-04-06T07:27:03;98454.09;;;0.44;60.57
21359;BME280;13506;50.852;20.632;2023-04-06T07:29:31;98447.38;;;0.40;60.25
21359;BME280;13506;50.852;20.632;2023-04-06T07:32:01;98457.19;;;0.55;60.93
21359;BME280;13506;50.852;20.632;2023-04-06T07:34:29;98455.06;;;0.70;60.19
21359;BME280;13506;50.852;20.632;2023-04-06T07:36:57;98450.84;;;0.67;61.62
21359;BME280;13506;50.852;20.632;2023-04-06T07:39:26;98440.94;;;0.53;61.34
21359;BME280;13506;50.852;20.632;2023-04-06T07:41:55;98446.53;;;0.40;61.03
21359;BME280;13506;50.852;20.632;2023-04-06T07:44:23;98454.94;;;0.45;62.57
21359;BME280;13506;50.852;20.632;2023-04-06T07:46:51;98431.09;;;0.40;61.71
21359;BME280;13506;50.852;20.632;2023-04-06T07:49:24;98444.06;;;0.35;61.00
21359;BME280;13506;50.852;20.632;2023-04-06T07:51:52;98439.38;;;0.48;61.52
21359;BME280;13506;50.852;20.632;2023-04-06T07:54:20;98453.16;;;0.47;63.00
21359;BME280;13506;50.852;20.632;2023-04-06T07:56:48;98441.16;;;0.46;62.71
21359;BME280;13506;50.852;20.632;2023-04-06T07:59:16;98437.19;;;0.65;63.69
21359;BME280;13506;50.852;20.632;2023-04-06T08:01:44;98425.19;;;0.92;62.79
21359;BME280;13506;50.852;20.632;2023-04-06T08:04:12;98420.09;;;0.89;62.52
21359;BME280;13506;50.852;20.632;2023-04-06T08:06:41;98424.16;;;0.96;63.35
21359;BME280;13506;50.852;20.632;2023-04-06T08:09:09;98419.31;;;1.14;62.88
21359;BME280;13506;50.852;20.632;2023-04-06T08:11:36;98416.91;;;1.34;61.83
21359;BME280;13506;50.852;20.632;2023-04-06T08:14:05;98430.69;;;1.33;60.99
21359;BME280;13506;50.852;20.632;2023-04-06T08:16:32;98428.91;;;1.09;59.75
21359;BME280;13506;50.852;20.632;2023-04-06T08:19:00;98425.34;;;1.13;60.35
21359;BME280;13506;50.852;20.632;2023-04-06T08:21:28;98428.44;;;0.97;61.32
21359;BME280;13506;50.852;20.632;2023-04-06T08:23:58;98421.09;;;0.85;62.26
21359;BME280;13506;50.852;20.632;2023-04-06T08:26:27;98422.84;;;0.85;63.98
21359;BME280;13506;50.852;20.632;2023-04-06T08:28:55;98427.78;;;0.63;63.83
21359;BME280;13506;50.852;20.632;2023-04-06T08:31:22;98412.13;;;0.70;64.31
21359;BME280;13506;50.852;20.632;2023-04-06T08:33:51;98423.28;;;0.41;66.69
21359;BME280;13506;50.852;20.632;2023-04-06T08:36:19;98413.16;;;0.36;68.08
21359;BME280;13506;50.852;20.632;2023-04-06T08:38:49;98425.88;;;0.11;69.62
21359;BME280;13506;50.852;20.632;2023-04-06T08:41:19;98419.59;;;0.22;69.65
21359;BME280;13506;50.852;20.632;2023-04-06T08:43:48;98417.34;;;0.39;68.96
21359;BME280;13506;50.852;20.632;2023-04-06T08:46:17;98411.16;;;0.46;70.14
21359;BME280;13506;50.852;20.632;2023-04-06T08:48:46;98418.13;;;0.43;70.37
21359;BME280;13506;50.852;20.632;2023-04-06T08:51:16;98413.94;;;0.38;70.60
21359;BME280;13506;50.852;20.632;2023-04-06T08:53:45;98408.47;;;0.49;69.78
21359;BME280;13506;50.852;20.632;2023-04-06T08:56:13;98420.59;;;0.46;70.92
21359;BME280;13506;50.852;20.632;2023-04-06T08:58:43;98409.56;;;0.42;71.95
21359;BME280;13506;50.852;20.632;2023-04-06T09:01:12;98403.34;;;0.20;73.64
21359;BME280;13506;50.852;20.632;2023-04-06T09:03:42;98409.16;;;0.26;73.81
21359;BME280;13506;50.852;20.632;2023-04-06T09:06:11;98405.09;;;0.47;73.85
21359;BME280;13506;50.852;20.632;2023-04-06T09:08:40;98398.94;;;0.53;73.27
21359;BME280;13506;50.852;20.632;2023-04-06T09:11:08;98408.09;;;0.62;73.93
21359;BME280;13506;50.852;20.632;2023-04-06T09:13:48;98401.22;;;0.62;75.03
21359;BME280;13506;50.852;20.632;2023-04-06T09:16:17;98393.81;;;0.51;74.97
21359;BME280;13506;50.852;20.632;2023-04-06T09:18:46;98399.53;;;0.61;74.20
21359;BME280;13506;50.852;20.632;2023-04-06T09:21:17;98401.69;;;0.47;75.91
21359;BME280;13506;50.852;20.632;2023-04-06T09:23:46;98384.09;;;0.33;75.00
21359;BME280;13506;50.852;20.632;2023-04-06T09:26:16;98393.41;;;0.37;75.80
21359;BME280;13506;50.852;20.632;2023-04-06T09:28:47;98393.72;;;0.26;78.05
21359;BME280;13506;50.852;20.632;2023-04-06T09:31:16;98383.06;;;0.10;78.72
21359;BME280;13506;50.852;20.632;2023-04-06T09:33:45;98396.22;;;-0.00;79.77
21359;BME280;13506;50.852;20.632;2023-04-06T09:36:13;98392.22;;;0.19;80.39
21359;BME280;13506;50.852;20.632;2023-04-06T09:38:52;98388.75;;;0.20;80.37
21359;BME280;13506;50.852;20.632;2023-04-06T09:41:23;98388.81;;;-0.11;82.81
21359;BME280;13506;50.852;20.632;2023-04-06T09:44:01;98389.63;;;-0.09;83.06
21359;BME280;13506;50.852;20.632;2023-04-06T09:46:32;98383.75;;;-0.14;85.44
21359;BME280;13506;50.852;20.632;2023-04-06T09:49:03;98377.03;;;-0.20;85.93
21359;BME280;13506;50.852;20.632;2023-04-06T09:51:35;98390.50;;;-0.10;84.71
21359;BME280;13506;50.852;20.632;2023-04-06T09:54:04;98373.13;;;-0.02;86.23
21359;BME280;13506;50.852;20.632;2023-04-06T09:56:39;98374.25;;;-0.11;88.09
21359;BME280;13506;50.852;20.632;2023-04-06T09:59:17;98374.13;;;-0.08;88.73
21359;BME280;13506;50.852;20.632;2023-04-06T10:01:48;98378.31;;;-0.04;90.47
21359;BME280;13506;50.852;20.632;2023-04-06T10:04:26;98363.63;;;0.00;89.72
21359;BME280;13506;50.852;20.632;2023-04-06T10:06:56;98363.78;;;-0.05;91.46
21359;BME280;13506;50.852;20.632;2023-04-06T10:09:27;98358.66;;;-0.06;89.34
21359;BME280;13506;50.852;20.632;2023-04-06T10:12:03;98360.88;;;0.06;89.48
21359;BME280;13506;50.852;20.632;2023-04-06T10:14:34;98361.72;;;0.07;89.36
21359;BME280;13506;50.852;20.632;2023-04-06T10:17:03;98345.16;;;0.15;90.80
21359;BME280;13506;50.852;20.632;2023-04-06T10:19:40;98341.44;;;0.26;90.29
21359;BME280;13506;50.852;20.632;2023-04-06T10:22:12;98334.75;;;0.20;90.94
21359;BME280;13506;50.852;20.632;2023-04-06T10:24:41;98346.13;;;0.13;90.12
21359;BME280;13506;50.852;20.632;2023-04-06T10:27:09;98338.88;;;0.26;90.87
21359;BME280;13506;50.852;20.632;2023-04-06T10:29:48;98334.50;;;0.28;90.30
21359;BME280;13506;50.852;20.632;2023-04-06T10:32:17;98335.59;;;0.21;91.23
21359;BME280;13506;50.852;20.632;2023-04-06T10:34:45;98329.13;;;0.07;93.11
21359;BME280;13506;50.852;20.632;2023-04-06T10:37:15;98325.53;;;0.13;93.17
21359;BME280;13506;50.852;20.632;2023-04-06T10:39:51;98325.31;;;0.21;92.45
21359;BME280;13506;50.852;20.632;2023-04-06T10:42:24;98322.63;;;0.24;93.83
21359;BME280;13506;50.852;20.632;2023-04-06T10:44:54;98319.22;;;0.23;93.53
21359;BME280;13506;50.852;20.632;2023-04-06T10:47:22;98316.66;;;0.23;94.76
21359;BME280;13506;50.852;20.632;2023-04-06T10:49:50;98309.00;;;0.20;94.47
21359;BME280;13506;50.852;20.632;2023-04-06T10:52:18;98302.38;;;0.13;96.81
21359;BME280;13506;50.852;20.632;2023-04-06T10:54:46;98298.88;;;0.15;95.95
21359;BME280;13506;50.852;20.632;2023-04-06T10:57:14;98293.84;;;0.12;96.53
21359;BME280;13506;50.852;20.632;2023-04-06T10:59:43;98295.50;;;0.13;96.12
21359;BME280;13506;50.852;20.632;2023-04-06T11:02:21;98291.19;;;0.14;96.51
21359;BME280;13506;50.852;20.632;2023-04-06T11:04:56;98302.34;;;0.14;97.60
21359;BME280;13506;50.852;20.632;2023-04-06T11:07:25;98295.25;;;0.23;96.70
21359;BME280;13506;50.852;20.632;2023-04-06T11:09:53;98298.69;;;0.22;98.36
21359;BME280;13506;50.852;20.632;2023-04-06T11:12:22;98294.94;;;0.32;96.72
21359;BME280;13506;50.852;20.632;2023-04-06T11:14:56;98286.00;;;0.44;95.78
21359;BME280;13506;50.852;20.632;2023-04-06T11:17:33;98284.84;;;0.26;97.19
21359;BME280;13506;50.852;20.632;2023-04-06T11:20:04;98291.09;;;0.19;97.11
21359;BME280;13506;50.852;20.632;2023-04-06T11:22:47;98284.34;;;0.14;98.39
21359;BME280;13506;50.852;20.632;2023-04-06T11:25:15;98290.97;;;0.22;98.02
21359;BME280;13506;50.852;20.632;2023-04-06T11:27:44;98285.13;;;0.16;98.96
21359;BME280;13506;50.852;20.632;2023-04-06T11:30:14;98294.91;;;0.05;98.94
21359;BME280;13506;50.852;20.632;2023-04-06T11:32:44;98292.31;;;0.05;98.50
21359;BME280;13506;50.852;20.632;2023-04-06T11:35:20;98284.28;;;0.16;98.29
21359;BME280;13506;50.852;20.632;2023-04-06T11:37:49;98278.41;;;0.12;98.26
21359;BME280;13506;50.852;20.632;2023-04-06T11:40:21;98294.44;;;0.21;98.59
21359;BME280;13506;50.852;20.632;2023-04-06T11:42:54;98296.75;;;0.02;98.30
21359;BME280;13506;50.852;20.632;2023-04-06T11:45:23;98288.88;;;0.06;99.52
21359;BME280;13506;50.852;20.632;2023-04-06T11:48:00;98293.31;;;0.01;100.00
21359;BME280;13506;50.852;20.632;2023-04-06T11:50:32;98287.31;;;0.01;100.00
21359;BME280;13506;50.852;20.632;2023-04-06T11:53:02;98284.09;;;-0.06;100.00
21359;BME280;13506;50.852;20.632;2023-04-06T11:55:37;98266.22;;;-0.09;100.00
21359;BME280;13506;50.852;20.632;2023-04-06T11:58:06;98268.78;;;-0.09;100.00
21359;BME280;13506;50.852;20.632;2023-04-06T12:00:34;98263.06;;;-0.19;100.00
21359;BME280;13506;50.852;20.632;2023-04-06T12:03:05;98270.09;;;-0.24;100.00
21359;BME280;13506;50.852;20.632;2023-04-06T12:05:34;98261.19;;;-0.14;100.00
21359;BME280;13506;50.852;20.632;2023-04-06T12:08:01;98265.50;;;-0.14;100.00
21359;BME280;13506;50.852;20.632;2023-04-06T12:10:30;98249.13;;;-0.12;100.00
21359;BME280;13506;50.852;20.632;2023-04-06T12:12:58;98250.69;;;-0.06;100.00
21359;BME280;13506;50.852;20.632;2023-04-06T12:15:26;98260.78;;;0.00;100.00
21359;BME280;13506;50.852;20.632;2023-04-06T12:17:54;98236.19;;;-0.09;100.00
21359;BME280;13506;50.852;20.632;2023-04-06T12:20:23;98247.22;;;-0.05;100.00
21359;BME280;13506;50.852;20.632;2023-04-06T12:22:51;98241.84;;;0.03;100.00
21359;BME280;13506;50.852;20.632;2023-04-06T12:25:19;98244.38;;;0.04;100.00
21359;BME280;13506;50.852;20.632;2023-04-06T12:27:47;98235.75;;;0.05;100.00
21359;BME280;13506;50.852;20.632;2023-04-06T12:30:16;98229.78;;;0.05;100.00
21359;BME280;13506;50.852;20.632;2023-04-06T12:32:44;98230.69;;;0.04;100.00
21359;BME280;13506;50.852;20.632;2023-04-06T12:35:12;98214.72;;;-0.08;100.00
21359;BME280;13506;50.852;20.632;2023-04-06T12:37:43;98231.88;;;-0.08;100.00
21359;BME280;13506;50.852;20.632;2023-04-06T12:40:11;98239.44;;;-0.04;100.00
21359;BME280;13506;50.852;20.632;2023-04-06T12:42:41;98249.09;;;-0.10;100.00
21359;BME280;13506;50.852;20.632;2023-04-06T12:45:10;98251.47;;;-0.04;100.00
21359;BME280;13506;50.852;20.632;2023-04-06T12:47:38;98254.34;;;-0.13;100.00
21359;BME280;13506;50.852;20.632;2023-04-06T12:50:07;98249.41;;;0.07;100.00
21359;BME280;13506;50.852;20.632;2023-04-06T12:52:35;98236.84;;;-0.02;100.00
21359;BME280;13506;50.852;20.632;2023-04-06T12:55:05;98239.13;;;0.07;100.00
21359;BME280;13506;50.852;20.632;2023-04-06T12:57:33;98223.59;;;0.10;100.00
21359;BME280;13506;50.852;20.632;2023-04-06T13:00:02;98228.94;;;0.04;100.00
21359;BME280;13506;50.852;20.632;2023-04-06T13:02:30;98212.94;;;-0.06;100.00
21359;BME280;13506;50.852;20.632;2023-04-06T13:04:58;98213.25;;;0.12;100.00
21359;BME280;13506;50.852;20.632;2023-04-06T13:07:26;98211.41;;;0.15;100.00
21359;BME280;13506;50.852;20.632;2023-04-06T13:09:54;98211.56;;;0.11;100.00